createdAt,value
2019-05-06T00:00:10.417Z,48.90
2019-05-06T00:01:10.401Z,48.47
2019-05-06T00:02:10.385Z,49.21
2019-05-06T00:03:10.388Z,49.51
2019-05-06T00:04:10.318Z,49.49
2019-05-06T00:05:10.409Z,49.51
2019-05-06T00:06:10.360Z,49.21
2019-05-06T00:07:10.342Z,49.72
2019-05-06T00:08:10.321Z,49.93
2019-05-06T00:09:10.310Z,49.10
2019-05-06T00:10:10.340Z,49.21
2019-05-06T00:11:10.258Z,49.64
2019-05-06T00:12:10.286Z,49.64
2019-05-06T00:13:10.261Z,49.43
2019-05-06T00:14:10.269Z,49.51
2019-05-06T00:15:10.276Z,49.82
2019-05-06T00:16:10.280Z,49.51
2019-05-06T00:17:10.230Z,49.62
2019-05-06T00:18:10.213Z,49.72
2019-05-06T00:19:10.217Z,49.72
2019-05-06T00:20:10.180Z,49.62
2019-05-06T00:21:10.250Z,49.62
2019-05-06T00:22:10.193Z,49.62
2019-05-06T00:23:10.187Z,49.62
2019-05-06T00:24:10.162Z,49.51
2019-05-06T00:25:10.190Z,49.93
2019-05-06T00:26:10.114Z,49.82
2019-05-06T00:27:10.129Z,49.82
2019-05-06T00:28:10.103Z,50.02
2019-05-06T00:29:10.113Z,49.82
2019-05-06T00:30:10.073Z,49.62
2019-05-06T00:31:13.294Z,49.41
2019-05-06T00:32:11.046Z,49.21
2019-05-06T00:33:10.044Z,49.51
2019-05-06T00:34:10.030Z,49.51
2019-05-06T00:35:10.025Z,49.41
2019-05-06T00:36:10.094Z,49.41
2019-05-06T00:37:10.006Z,49.10
2019-05-06T00:38:10.017Z,49.39
2019-05-06T00:39:10.002Z,49.00
2019-05-06T00:40:09.979Z,49.21
2019-05-06T00:41:09.968Z,49.00
2019-05-06T00:42:09.980Z,49.31
2019-05-06T00:43:09.937Z,49.31
2019-05-06T00:44:09.936Z,49.21
2019-05-06T00:45:09.925Z,48.90
2019-05-06T00:46:09.878Z,49.08
2019-05-06T00:47:09.950Z,49.41
2019-05-06T00:48:09.911Z,49.00
2019-05-06T00:49:09.890Z,48.77
2019-05-06T00:50:09.838Z,49.39
2019-05-06T00:51:09.889Z,49.18
2019-05-06T00:52:09.918Z,49.59
2019-05-06T00:53:09.809Z,49.29
2019-05-06T00:54:09.766Z,48.98
2019-05-06T00:55:09.805Z,49.39
2019-05-06T00:56:09.840Z,49.29
2019-05-06T00:57:09.797Z,49.08
2019-05-06T00:58:09.837Z,48.36
2019-05-06T00:59:09.727Z,48.98
2019-05-06T01:00:09.766Z,48.67
2019-05-06T01:01:23.193Z,48.57
2019-05-06T01:02:10.802Z,48.36
2019-05-06T01:03:09.798Z,49.08
2019-05-06T01:04:09.698Z,49.08
2019-05-06T01:05:09.728Z,48.65
2019-05-06T01:06:09.687Z,47.96
2019-05-06T01:07:09.680Z,48.47
2019-05-06T01:08:09.728Z,48.26
2019-05-06T01:09:09.663Z,48.47
2019-05-06T01:10:09.658Z,48.55
2019-05-06T01:11:09.644Z,48.16
2019-05-06T01:12:09.653Z,48.14
2019-05-06T01:13:09.679Z,48.85
2019-05-06T01:14:09.608Z,48.06
2019-05-06T01:15:09.584Z,47.96
2019-05-06T01:16:09.610Z,48.47
2019-05-06T01:17:09.595Z,48.77
2019-05-06T01:18:09.589Z,48.57
2019-05-06T01:19:09.560Z,48.47
2019-05-06T01:20:09.512Z,49.18
2019-05-06T01:21:09.531Z,48.98
2019-05-06T01:22:09.537Z,49.08
2019-05-06T01:23:09.521Z,49.29
2019-05-06T01:24:09.577Z,49.18
2019-05-06T01:25:09.505Z,49.39
2019-05-06T01:26:09.493Z,49.49
2019-05-06T01:27:09.475Z,49.18
2019-05-06T01:28:09.472Z,49.39
2019-05-06T01:29:09.463Z,49.08
2019-05-06T01:30:09.421Z,49.08
2019-05-06T01:31:09.419Z,49.39
2019-05-06T01:32:09.418Z,49.39
2019-05-06T01:33:09.402Z,49.08
2019-05-06T01:34:09.416Z,49.49
2019-05-06T01:35:09.359Z,49.49
2019-05-06T01:36:09.365Z,49.49
2019-05-06T01:37:09.322Z,49.59
2019-05-06T01:38:09.351Z,49.39
2019-05-06T01:39:09.394Z,50.01
2019-05-06T01:40:09.327Z,49.69
2019-05-06T01:41:09.248Z,49.90
2019-05-06T01:42:09.319Z,50.31
2019-05-06T01:43:09.284Z,49.59
2019-05-06T01:44:09.327Z,49.59
2019-05-06T01:45:09.316Z,49.62
2019-05-06T01:46:09.253Z,49.51
2019-05-06T01:47:09.275Z,49.51
2019-05-06T01:48:09.238Z,49.41
2019-05-06T01:49:09.232Z,49.31
2019-05-06T01:50:09.287Z,49.51
2019-05-06T01:51:09.175Z,49.69
2019-05-06T01:52:09.199Z,49.62
2019-05-06T01:53:09.179Z,49.62
2019-05-06T01:54:09.166Z,50.13
2019-05-06T01:55:09.225Z,50.02
2019-05-06T01:56:09.181Z,50.13
2019-05-06T01:57:09.116Z,50.02
2019-05-06T01:58:09.138Z,50.13
2019-05-06T01:59:09.097Z,50.02
2019-05-06T02:00:09.171Z,50.23
2019-05-06T02:01:09.105Z,50.36
2019-05-06T02:02:09.083Z,50.36
2019-05-06T02:03:09.082Z,50.13
2019-05-06T02:04:09.069Z,50.23
2019-05-06T02:05:09.068Z,50.05
2019-05-06T02:06:09.120Z,50.56
2019-05-06T02:07:09.015Z,50.34
2019-05-06T02:08:09.026Z,50.46
2019-05-06T02:09:09.023Z,50.74
2019-05-06T02:10:09.039Z,51.07
2019-05-06T02:11:17.002Z,51.18
2019-05-06T02:12:08.912Z,50.97
2019-05-06T02:13:08.902Z,50.87
2019-05-06T02:14:08.885Z,51.07
2019-05-06T02:15:08.905Z,50.87
2019-05-06T02:16:08.942Z,50.77
2019-05-06T02:17:08.919Z,50.97
2019-05-06T02:18:08.908Z,50.87
2019-05-06T02:19:08.888Z,50.87
2019-05-06T02:20:08.934Z,50.87
2019-05-06T02:21:08.934Z,50.77
2019-05-06T02:22:08.851Z,51.07
2019-05-06T02:23:08.848Z,50.87
2019-05-06T02:24:08.824Z,51.41
2019-05-06T02:25:08.856Z,51.20
2019-05-06T02:26:08.863Z,51.61
2019-05-06T02:27:08.814Z,51.51
2019-05-06T02:28:08.811Z,51.61
2019-05-06T02:29:08.781Z,51.92
2019-05-06T02:30:08.757Z,51.82
2019-05-06T02:31:08.812Z,52.54
2019-05-06T02:32:21.123Z,52.64
2019-05-06T02:33:09.748Z,52.54
2019-05-06T02:34:08.713Z,52.12
2019-05-06T02:35:08.725Z,52.02
2019-05-06T02:36:08.776Z,52.15
2019-05-06T02:37:08.683Z,52.23
2019-05-06T02:38:08.707Z,52.66
2019-05-06T02:39:09.578Z,52.87
2019-05-06T02:40:08.743Z,53.08
2019-05-06T02:41:08.673Z,52.97
2019-05-06T02:42:12.791Z,52.97
2019-05-06T02:43:09.210Z,52.76
2019-05-06T02:44:11.011Z,52.66
2019-05-06T02:45:12.577Z,53.08
2019-05-06T02:46:08.599Z,53.69
2019-05-06T02:47:08.667Z,53.28
2019-05-06T02:48:08.605Z,53.61
2019-05-06T02:49:08.583Z,53.69
2019-05-06T02:50:08.567Z,53.49
2019-05-06T02:51:08.548Z,53.41
2019-05-06T02:52:08.575Z,54.23
2019-05-06T02:53:08.540Z,54.02
2019-05-06T02:54:08.540Z,54.13
2019-05-06T02:55:08.508Z,54.13
2019-05-06T02:56:08.508Z,54.43
2019-05-06T02:57:08.557Z,54.53
2019-05-06T02:58:08.472Z,54.33
2019-05-06T02:59:08.512Z,54.64
2019-05-06T03:00:08.447Z,54.74
2019-05-06T03:01:08.432Z,54.95
2019-05-06T03:02:08.435Z,54.74
2019-05-06T03:03:08.485Z,54.53
2019-05-06T03:04:08.374Z,54.36
2019-05-06T03:05:08.394Z,54.97
2019-05-06T03:06:08.384Z,55.08
2019-05-06T03:07:08.364Z,55.49
2019-05-06T03:08:08.429Z,55.38
2019-05-06T03:09:08.363Z,55.38
2019-05-06T03:10:08.362Z,55.59
2019-05-06T03:11:08.332Z,55.90
2019-05-06T03:12:08.319Z,56.00
2019-05-06T03:13:08.368Z,55.90
2019-05-06T03:14:08.317Z,56.10
2019-05-06T03:15:08.281Z,55.90
2019-05-06T03:16:08.253Z,56.00
2019-05-06T03:17:08.276Z,56.10
2019-05-06T03:18:08.305Z,56.00
2019-05-06T03:19:08.253Z,56.00
2019-05-06T03:20:08.238Z,56.51
2019-05-06T03:21:08.254Z,56.00
2019-05-06T03:22:08.239Z,56.41
2019-05-06T03:23:08.266Z,56.54
2019-05-06T03:24:08.178Z,56.21
2019-05-06T03:25:08.199Z,56.41
2019-05-06T03:26:08.180Z,56.85
2019-05-06T03:27:08.165Z,56.85
2019-05-06T03:28:08.211Z,57.67
2019-05-06T03:29:08.142Z,57.78
2019-05-06T03:30:08.151Z,56.46
2019-05-06T03:31:08.504Z,56.98
2019-05-06T03:32:08.153Z,57.08
2019-05-06T03:33:37.600Z,57.18
2019-05-06T03:34:35.967Z,57.10
2019-05-06T03:35:27.516Z,57.62
2019-05-06T03:36:18.579Z,58.65
2019-05-06T03:37:09.089Z,58.75
2019-05-06T03:38:08.096Z,58.34
2019-05-06T03:39:08.042Z,58.34
2019-05-06T03:40:08.053Z,58.34
2019-05-06T03:41:08.014Z,59.19
2019-05-06T03:42:08.030Z,58.75
2019-05-06T03:43:08.064Z,58.65
2019-05-06T03:44:07.988Z,58.78
2019-05-06T03:45:07.975Z,59.30
2019-05-06T03:46:07.985Z,59.40
2019-05-06T03:47:07.965Z,59.50
2019-05-06T03:48:07.958Z,59.91
2019-05-06T03:49:07.984Z,59.50
2019-05-06T03:50:07.923Z,59.91
2019-05-06T03:51:07.900Z,59.40
2019-05-06T03:52:07.910Z,59.50
2019-05-06T03:53:07.963Z,60.22
2019-05-06T03:54:07.921Z,59.27
2019-05-06T03:55:07.882Z,58.75
2019-05-06T03:56:07.867Z,58.54
2019-05-06T03:57:07.843Z,58.75
2019-05-06T03:58:07.817Z,59.06
2019-05-06T03:59:07.882Z,58.34
2019-05-06T04:00:07.828Z,58.86
2019-05-06T04:01:07.834Z,58.86
2019-05-06T04:02:07.745Z,58.86
2019-05-06T04:03:07.729Z,59.40
2019-05-06T04:04:07.747Z,59.27
2019-05-06T04:05:07.705Z,59.27
2019-05-06T04:06:07.712Z,59.81
2019-05-06T04:07:07.697Z,59.99
2019-05-06T04:08:07.673Z,59.91
2019-05-06T04:09:07.697Z,59.68
2019-05-06T04:10:07.671Z,59.81
2019-05-06T04:11:07.642Z,59.78
2019-05-06T04:12:07.632Z,60.02
2019-05-06T04:13:07.624Z,59.68
2019-05-06T04:14:07.640Z,59.68
2019-05-06T04:15:07.603Z,59.81
2019-05-06T04:16:07.586Z,59.99
2019-05-06T04:17:07.599Z,59.91
2019-05-06T04:18:07.604Z,59.68
2019-05-06T04:19:07.586Z,59.68
2019-05-06T04:20:07.550Z,59.78
2019-05-06T04:21:08.975Z,60.19
2019-05-06T04:22:07.525Z,59.89
2019-05-06T04:23:07.518Z,60.09
2019-05-06T04:24:07.536Z,60.43
2019-05-06T04:25:07.497Z,60.40
2019-05-06T04:26:07.490Z,60.63
2019-05-06T04:27:07.477Z,59.99
2019-05-06T04:28:07.460Z,60.12
2019-05-06T04:29:07.478Z,60.40
2019-05-06T04:30:07.441Z,60.63
2019-05-06T04:31:07.430Z,60.74
2019-05-06T04:32:07.424Z,60.77
2019-05-06T04:33:07.412Z,61.18
2019-05-06T04:34:13.949Z,61.59
2019-05-06T04:35:08.392Z,61.59
2019-05-06T04:36:07.377Z,61.38
2019-05-06T04:37:07.364Z,61.59
2019-05-06T04:38:07.365Z,61.80
2019-05-06T04:39:07.385Z,61.49
2019-05-06T04:40:07.358Z,61.80
2019-05-06T04:41:08.163Z,61.90
2019-05-06T04:42:09.483Z,61.35
2019-05-06T04:43:07.301Z,61.35
2019-05-06T04:44:07.303Z,61.25
2019-05-06T04:45:07.321Z,61.25
2019-05-06T04:46:07.278Z,61.15
2019-05-06T04:47:07.268Z,60.94
2019-05-06T04:48:07.254Z,61.15
2019-05-06T04:49:10.887Z,61.25
2019-05-06T04:50:08.247Z,60.94
2019-05-06T04:51:07.216Z,61.05
2019-05-06T04:52:07.216Z,61.02
2019-05-06T04:53:07.202Z,60.61
2019-05-06T04:54:07.210Z,60.94
2019-05-06T04:55:07.215Z,60.84
2019-05-06T04:56:07.175Z,60.81
2019-05-06T04:57:07.161Z,60.63
2019-05-06T04:58:07.151Z,60.61
2019-05-06T04:59:07.141Z,60.94
2019-05-06T05:00:07.162Z,61.35
2019-05-06T05:01:07.129Z,61.35
2019-05-06T05:02:07.113Z,61.63
2019-05-06T05:03:07.096Z,61.15
2019-05-06T05:04:22.965Z,61.25
2019-05-06T05:05:08.121Z,61.56
2019-05-06T05:06:07.071Z,61.25
2019-05-06T05:07:07.061Z,61.35
2019-05-06T05:08:07.058Z,61.77
2019-05-06T05:09:07.034Z,61.90
2019-05-06T05:10:07.062Z,62.10
2019-05-06T05:11:07.594Z,62.41
2019-05-06T05:12:07.013Z,62.52
2019-05-06T05:13:06.989Z,63.03
2019-05-06T05:14:06.975Z,62.90
2019-05-06T05:15:07.003Z,62.38
2019-05-06T05:16:06.960Z,61.77
2019-05-06T05:17:06.956Z,62.07
2019-05-06T05:18:07.020Z,61.98
2019-05-06T05:19:06.931Z,61.53
2019-05-06T05:20:07.024Z,61.77
2019-05-06T05:21:06.984Z,61.66
2019-05-06T05:22:06.927Z,61.53
2019-05-06T05:23:06.907Z,62.15
2019-05-06T05:24:06.874Z,61.53
2019-05-06T05:25:06.868Z,61.12
2019-05-06T05:26:06.886Z,61.33
2019-05-06T05:27:06.840Z,61.22
2019-05-06T05:28:06.832Z,61.53
2019-05-06T05:29:06.841Z,61.19
2019-05-06T05:30:06.828Z,61.12
2019-05-06T05:31:06.839Z,61.30
2019-05-06T05:32:06.786Z,61.02
2019-05-06T05:33:06.782Z,60.99
2019-05-06T05:34:06.765Z,61.33
2019-05-06T05:35:06.757Z,61.40
2019-05-06T05:36:06.793Z,61.40
2019-05-06T05:37:06.738Z,61.09
2019-05-06T05:38:06.730Z,61.43
2019-05-06T05:39:06.718Z,61.43
2019-05-06T05:40:06.705Z,61.63
2019-05-06T05:41:06.723Z,62.18
2019-05-06T05:42:06.688Z,61.53
2019-05-06T05:43:06.676Z,61.02
2019-05-06T05:44:06.658Z,61.33
2019-05-06T05:45:06.648Z,61.30
2019-05-06T05:46:06.669Z,61.12
2019-05-06T05:47:06.664Z,61.09
2019-05-06T05:48:06.694Z,60.78
2019-05-06T05:49:06.611Z,60.65
2019-05-06T05:50:06.598Z,60.58
2019-05-06T05:51:06.616Z,60.45
2019-05-06T05:52:06.577Z,60.55
2019-05-06T05:53:06.566Z,60.03
2019-05-06T05:54:06.551Z,60.24
2019-05-06T05:55:06.542Z,60.55
2019-05-06T05:56:06.574Z,60.55
2019-05-06T05:57:06.527Z,60.55
2019-05-06T05:58:06.512Z,60.35
2019-05-06T05:59:06.497Z,60.42
2019-05-06T06:00:06.505Z,60.52
2019-05-06T06:01:06.512Z,59.80
2019-05-06T06:02:06.470Z,59.77
2019-05-06T06:03:07.250Z,58.95
2019-05-06T06:04:06.440Z,59.39
2019-05-06T06:05:06.432Z,59.36
2019-05-06T06:06:06.420Z,59.57
2019-05-06T06:07:06.439Z,59.26
2019-05-06T06:08:06.403Z,59.54
2019-05-06T06:09:06.393Z,58.31
2019-05-06T06:10:06.390Z,58.62
2019-05-06T06:11:06.371Z,58.11
2019-05-06T06:12:06.385Z,58.21
2019-05-06T06:13:06.344Z,57.28
2019-05-06T06:14:06.338Z,57.67
2019-05-06T06:15:07.102Z,58.07
2019-05-06T06:16:06.847Z,57.56
2019-05-06T06:17:06.931Z,58.07
2019-05-06T06:18:06.290Z,58.28
2019-05-06T06:19:06.280Z,58.59
2019-05-06T06:20:06.275Z,57.33
2019-05-06T06:21:17.938Z,57.43
2019-05-06T06:22:07.292Z,57.13
2019-05-06T06:23:06.290Z,56.92
2019-05-06T06:24:06.226Z,57.23
2019-05-06T06:25:06.287Z,57.00
2019-05-06T06:26:06.206Z,57.10
2019-05-06T06:27:06.235Z,56.69
2019-05-06T06:28:06.188Z,56.59
2019-05-06T06:29:06.178Z,57.51
2019-05-06T06:30:06.162Z,56.69
2019-05-06T06:31:06.150Z,56.49
2019-05-06T06:32:06.187Z,56.51
2019-05-06T06:33:06.134Z,57.43
2019-05-06T06:34:06.128Z,56.92
2019-05-06T06:35:11.094Z,56.62
2019-05-06T06:36:07.098Z,57.03
2019-05-06T06:37:06.894Z,56.30
2019-05-06T06:38:06.107Z,57.26
2019-05-06T06:39:06.112Z,57.64
2019-05-06T06:40:06.062Z,57.33
2019-05-06T06:41:06.119Z,57.95
2019-05-06T06:42:06.096Z,57.54
2019-05-06T06:43:06.055Z,57.03
2019-05-06T06:44:06.069Z,56.92
2019-05-06T06:45:06.050Z,57.56
2019-05-06T06:46:09.350Z,57.23
2019-05-06T06:47:06.047Z,57.36
2019-05-06T06:48:06.009Z,57.15
2019-05-06T06:49:05.957Z,57.26
2019-05-06T06:50:05.951Z,57.26
2019-05-06T06:51:05.937Z,57.13
2019-05-06T06:52:11.215Z,57.23
2019-05-06T06:53:06.919Z,56.69
2019-05-06T06:54:05.911Z,56.56
2019-05-06T06:55:06.138Z,55.72
2019-05-06T06:56:06.052Z,56.46
2019-05-06T06:57:09.328Z,56.23
2019-05-06T06:58:05.995Z,54.18
2019-05-06T06:59:06.193Z,54.25
2019-05-06T07:00:05.938Z,54.16
2019-05-06T07:01:06.670Z,53.97
2019-05-06T07:02:06.782Z,54.41
2019-05-06T07:03:06.055Z,54.59
2019-05-06T07:04:10.517Z,53.97
2019-05-06T07:05:06.811Z,53.44
2019-05-06T07:06:05.945Z,53.54
2019-05-06T07:07:05.776Z,54.16
2019-05-06T07:08:05.817Z,53.52
2019-05-06T07:09:05.742Z,52.08
2019-05-06T07:10:05.751Z,52.08
2019-05-06T07:11:05.722Z,52.21
2019-05-06T07:12:05.779Z,52.39
2019-05-06T07:13:05.725Z,51.98
2019-05-06T07:14:05.699Z,52.78
2019-05-06T07:15:05.709Z,51.75
2019-05-06T07:16:05.708Z,52.06
2019-05-06T07:17:05.672Z,51.62
2019-05-06T07:18:05.746Z,51.53
2019-05-06T07:19:05.647Z,51.45
2019-05-06T07:20:05.626Z,50.91
2019-05-06T07:21:06.426Z,50.12
2019-05-06T07:22:07.023Z,50.55
2019-05-06T07:23:05.593Z,51.37
2019-05-06T07:24:05.610Z,51.16
2019-05-06T07:25:05.599Z,50.63
2019-05-06T07:26:05.606Z,50.20
2019-05-06T07:27:05.559Z,50.30
2019-05-06T07:28:05.543Z,49.66
2019-05-06T07:29:16.766Z,49.25
2019-05-06T07:30:06.522Z,49.22
2019-05-06T07:31:18.749Z,48.36
2019-05-06T07:32:06.502Z,46.47
2019-05-06T07:33:06.104Z,47.00
2019-05-06T07:34:05.517Z,47.16
2019-05-06T07:35:06.359Z,47.42
2019-05-06T07:36:05.461Z,41.80
2019-05-06T07:37:05.454Z,37.82
2019-05-06T07:38:05.525Z,36.30
2019-05-06T07:39:05.454Z,33.13
2019-05-06T07:40:05.415Z,36.17
2019-05-06T07:41:05.415Z,38.16
2019-05-06T07:42:05.444Z,37.50
2019-05-06T07:43:05.413Z,36.55
2019-05-06T07:44:05.377Z,37.30
2019-05-06T07:45:06.389Z,38.13
2019-05-06T07:46:05.370Z,38.26
2019-05-06T07:47:05.342Z,38.79
2019-05-06T07:48:05.331Z,39.62
2019-05-06T07:49:05.346Z,39.78
2019-05-06T07:50:05.311Z,38.18
2019-05-06T07:51:05.300Z,36.27
2019-05-06T07:52:05.283Z,37.40
2019-05-06T07:53:05.272Z,34.32
2019-05-06T07:54:05.284Z,31.20
2019-05-06T07:55:05.263Z,28.64
2019-05-06T07:56:05.538Z,27.81
2019-05-06T07:57:05.261Z,28.55
2019-05-06T07:58:05.249Z,29.05
2019-05-06T07:59:05.249Z,28.30
2019-05-06T08:00:05.202Z,29.93
2019-05-06T08:01:05.188Z,26.23
2019-05-06T08:02:05.178Z,25.46
2019-05-06T08:03:05.234Z,24.38
2019-05-06T08:04:05.191Z,24.57
2019-05-06T08:05:07.591Z,23.35
2019-05-06T08:06:05.137Z,23.65
2019-05-06T08:07:05.127Z,23.45
2019-05-06T08:08:05.120Z,22.63
2019-05-06T08:09:05.131Z,22.28
2019-05-06T08:10:05.102Z,20.86
2019-05-06T08:11:05.095Z,22.14
2019-05-06T08:12:05.073Z,24.90
2019-05-06T08:13:05.065Z,25.93
2019-05-06T08:14:05.101Z,25.81
2019-05-06T08:15:05.922Z,26.08
2019-05-06T08:16:05.038Z,25.32
2019-05-06T08:17:05.035Z,23.98
2019-05-06T08:18:05.028Z,23.25
2019-05-06T08:19:05.037Z,22.38
2019-05-06T08:20:04.991Z,21.36
2019-05-06T08:21:04.981Z,22.42
2019-05-06T08:22:04.978Z,23.69
2019-05-06T08:23:04.969Z,25.41
2019-05-06T08:24:04.981Z,23.94
2019-05-06T08:25:04.946Z,24.32
2019-05-06T08:26:11.996Z,25.89
2019-05-06T08:27:05.949Z,26.10
2019-05-06T08:28:04.920Z,25.67
2019-05-06T08:29:04.911Z,27.32
2019-05-06T08:30:04.902Z,28.08
2019-05-06T08:31:04.889Z,29.03
2019-05-06T08:32:04.901Z,31.33
2019-05-06T08:33:04.858Z,32.18
2019-05-06T08:34:04.862Z,33.24
2019-05-06T08:35:04.868Z,34.15
2019-05-06T08:36:11.735Z,34.59
2019-05-06T08:37:05.821Z,34.28
2019-05-06T08:38:04.808Z,32.08
2019-05-06T08:39:04.795Z,28.21
2019-05-06T08:40:04.824Z,25.79
2019-05-06T08:41:04.782Z,23.43
2019-05-06T08:42:04.771Z,21.00
2019-05-06T08:43:04.793Z,22.77
2019-05-06T08:44:04.752Z,25.02
2019-05-06T08:45:07.097Z,26.37
2019-05-06T08:46:04.724Z,26.31
2019-05-06T08:47:04.727Z,27.02
2019-05-06T08:48:04.719Z,24.99
2019-05-06T08:49:04.744Z,23.86
2019-05-06T08:50:04.712Z,21.80
2019-05-06T08:51:04.677Z,21.10
2019-05-06T08:52:04.664Z,20.48
2019-05-06T08:53:05.205Z,21.30
2019-05-06T08:54:04.664Z,20.07
2019-05-06T08:55:04.906Z,21.28
2019-05-06T08:56:04.622Z,20.24
2019-05-06T08:57:04.612Z,19.50
2019-05-06T08:58:04.604Z,19.96
2019-05-06T08:59:04.596Z,21.73
2019-05-06T09:00:04.618Z,23.87
2019-05-06T09:01:04.580Z,24.14
2019-05-06T09:02:04.563Z,25.20
2019-05-06T09:03:04.705Z,26.84
2019-05-06T09:04:11.347Z,27.99
2019-05-06T09:05:06.201Z,29.16
2019-05-06T09:06:07.394Z,30.16
2019-05-06T09:07:04.518Z,28.15
2019-05-06T09:08:04.506Z,27.33
2019-05-06T09:09:04.498Z,25.35
2019-05-06T09:10:04.523Z,24.93
2019-05-06T09:11:04.485Z,25.18
2019-05-06T09:12:04.482Z,26.95
2019-05-06T09:13:04.453Z,28.11
2019-05-06T09:14:04.441Z,29.17
2019-05-06T09:15:04.431Z,30.63
2019-05-06T09:16:04.460Z,30.64
2019-05-06T09:17:04.417Z,32.57
2019-05-06T09:18:04.407Z,32.49
2019-05-06T09:19:04.703Z,33.09
2019-05-06T09:20:04.379Z,33.29
2019-05-06T09:21:04.393Z,32.90
2019-05-06T09:22:04.360Z,32.01
2019-05-06T09:23:04.739Z,32.67
2019-05-06T09:24:04.354Z,28.41
2019-05-06T09:25:04.333Z,26.40
2019-05-06T09:26:04.342Z,24.81
2019-05-06T09:27:04.306Z,23.14
2019-05-06T09:28:04.304Z,20.78
2019-05-06T09:29:04.299Z,21.78
2019-05-06T09:30:04.281Z,22.22
2019-05-06T09:31:04.296Z,25.09
2019-05-06T09:32:04.256Z,26.15
2019-05-06T09:33:04.247Z,26.89
2019-05-06T09:34:04.233Z,27.54
2019-05-06T09:35:04.251Z,28.86
2019-05-06T09:36:04.245Z,30.18
2019-05-06T09:37:04.250Z,30.10
2019-05-06T09:38:04.198Z,30.63
2019-05-06T09:39:04.187Z,30.74
2019-05-06T09:40:04.175Z,29.66
2019-05-06T09:41:05.027Z,30.91
2019-05-06T09:42:04.717Z,32.26
2019-05-06T09:43:04.734Z,32.71
2019-05-06T09:44:04.138Z,33.01
2019-05-06T09:45:04.117Z,32.21
2019-05-06T09:46:04.133Z,29.02
2019-05-06T09:47:04.101Z,25.77
2019-05-06T09:48:04.403Z,23.78
2019-05-06T09:49:04.085Z,23.44
2019-05-06T09:50:04.074Z,24.97
2019-05-06T09:51:04.144Z,25.61
2019-05-06T09:52:04.094Z,25.73
2019-05-06T09:53:04.035Z,26.87
2019-05-06T09:54:04.235Z,27.20
2019-05-06T09:55:04.070Z,28.03
2019-05-06T09:56:04.309Z,28.24
2019-05-06T09:57:03.998Z,29.38
2019-05-06T09:58:03.991Z,28.91
2019-05-06T09:59:03.971Z,30.77
2019-05-06T10:00:04.880Z,31.00
2019-05-06T10:01:03.953Z,32.14
2019-05-06T10:02:03.974Z,32.24
2019-05-06T10:03:03.998Z,32.68
2019-05-06T10:04:03.921Z,32.79
2019-05-06T10:05:03.908Z,32.76
2019-05-06T10:06:03.895Z,31.10
2019-05-06T10:07:03.912Z,30.40
2019-05-06T10:08:03.881Z,29.19
2019-05-06T10:09:05.137Z,26.93
2019-05-06T10:10:04.691Z,26.20
2019-05-06T10:11:03.849Z,27.54
2019-05-06T10:12:03.865Z,27.98
2019-05-06T10:13:03.826Z,28.85
2019-05-06T10:14:03.819Z,31.05
2019-05-06T10:15:03.808Z,32.51
2019-05-06T10:16:03.791Z,33.22
2019-05-06T10:17:04.399Z,34.45
2019-05-06T10:18:04.474Z,34.05
2019-05-06T10:19:03.840Z,34.06
2019-05-06T10:20:03.755Z,33.86
2019-05-06T10:21:03.751Z,33.26
2019-05-06T10:22:03.762Z,34.50
2019-05-06T10:23:03.723Z,34.78
2019-05-06T10:24:03.705Z,34.89
2019-05-06T10:25:03.980Z,34.77
2019-05-06T10:26:04.697Z,33.40
2019-05-06T10:27:03.702Z,32.98
2019-05-06T10:28:03.677Z,32.38
2019-05-06T10:29:03.659Z,32.68
2019-05-06T10:30:03.656Z,33.30
2019-05-06T10:31:03.638Z,33.13
2019-05-06T10:32:03.661Z,33.37
2019-05-06T10:33:03.619Z,34.60
2019-05-06T10:34:03.612Z,34.21
2019-05-06T10:35:03.601Z,34.94
2019-05-06T10:36:03.578Z,35.75
2019-05-06T10:37:14.658Z,35.16
2019-05-06T10:38:04.559Z,35.86
2019-05-06T10:39:03.546Z,35.24
2019-05-06T10:40:03.559Z,35.34
2019-05-06T10:41:07.470Z,36.05
2019-05-06T10:42:03.798Z,36.04
2019-05-06T10:43:03.535Z,35.94
2019-05-06T10:44:03.500Z,35.22
2019-05-06T10:45:03.482Z,34.52
2019-05-06T10:46:04.126Z,35.31
2019-05-06T10:47:03.463Z,34.72
2019-05-06T10:48:03.478Z,34.41
2019-05-06T10:49:03.438Z,34.41
2019-05-06T10:50:03.423Z,34.60
2019-05-06T10:51:03.666Z,34.39
2019-05-06T10:52:03.438Z,34.91
2019-05-06T10:53:03.432Z,35.00
2019-05-06T10:54:03.386Z,35.51
2019-05-06T10:55:03.551Z,35.53
2019-05-06T10:56:03.360Z,35.75
2019-05-06T10:57:03.352Z,35.97
2019-05-06T10:58:03.350Z,35.86
2019-05-06T10:59:03.353Z,36.66
2019-05-06T11:00:03.324Z,37.05
2019-05-06T11:01:03.684Z,35.63
2019-05-06T11:02:05.401Z,35.95
2019-05-06T11:03:03.315Z,35.64
2019-05-06T11:04:03.309Z,35.63
2019-05-06T11:05:03.271Z,35.95
2019-05-06T11:06:03.266Z,35.75
2019-05-06T11:07:04.108Z,34.94
2019-05-06T11:08:03.232Z,34.75
2019-05-06T11:09:03.392Z,34.21
2019-05-06T11:10:03.212Z,33.69
2019-05-06T11:11:14.803Z,34.26
2019-05-06T11:12:04.197Z,32.12
2019-05-06T11:13:03.533Z,32.71
2019-05-06T11:14:03.269Z,31.99
2019-05-06T11:15:03.648Z,32.31
2019-05-06T11:16:03.476Z,32.31
2019-05-06T11:17:05.226Z,32.79
2019-05-06T11:18:04.784Z,32.53
2019-05-06T11:19:05.156Z,33.26
2019-05-06T11:20:06.365Z,33.07
2019-05-06T11:21:03.634Z,32.98
2019-05-06T11:22:03.801Z,33.58
2019-05-06T11:23:03.089Z,33.28
2019-05-06T11:24:06.161Z,34.09
2019-05-06T11:25:03.353Z,33.47
2019-05-06T11:26:03.307Z,33.79
2019-05-06T11:27:03.616Z,33.70
2019-05-06T11:28:03.104Z,33.50
2019-05-06T11:29:05.173Z,34.31
2019-05-06T11:30:02.998Z,34.63
2019-05-06T11:31:03.005Z,34.12
2019-05-06T11:32:02.989Z,34.74
2019-05-06T11:33:04.768Z,35.14
2019-05-06T11:34:03.050Z,34.43
2019-05-06T11:35:03.731Z,34.24
2019-05-06T11:36:02.938Z,35.16
2019-05-06T11:37:02.927Z,35.16
2019-05-06T11:38:02.917Z,35.63
2019-05-06T11:39:02.935Z,35.53
2019-05-06T11:40:02.889Z,35.44
2019-05-06T11:41:02.886Z,35.75
2019-05-06T11:42:23.694Z,35.24
2019-05-06T11:43:03.859Z,35.24
2019-05-06T11:44:02.881Z,35.64
2019-05-06T11:45:03.274Z,35.86
2019-05-06T11:46:02.840Z,35.77
2019-05-06T11:47:03.376Z,35.86
2019-05-06T11:48:02.803Z,36.29
2019-05-06T11:49:02.852Z,36.27
2019-05-06T11:50:05.143Z,37.37
2019-05-06T11:51:02.789Z,36.65
2019-05-06T11:52:02.770Z,35.02
2019-05-06T11:53:02.762Z,35.22
2019-05-06T11:54:07.653Z,35.72
2019-05-06T11:55:03.767Z,35.92
2019-05-06T11:56:02.731Z,34.67
2019-05-06T11:57:02.996Z,34.48
2019-05-06T11:58:02.820Z,34.69
2019-05-06T11:59:02.700Z,34.70
2019-05-06T12:00:03.182Z,33.97
2019-05-06T12:01:02.909Z,34.72
2019-05-06T12:02:02.900Z,35.21
2019-05-06T12:03:02.641Z,34.60
2019-05-06T12:04:03.206Z,35.00
2019-05-06T12:05:02.657Z,34.50
2019-05-06T12:06:03.842Z,35.11
2019-05-06T12:07:11.086Z,34.80
2019-05-06T12:08:07.944Z,34.48
2019-05-06T12:09:06.474Z,34.58
2019-05-06T12:10:02.677Z,34.78
2019-05-06T12:11:03.044Z,35.99
2019-05-06T12:12:03.316Z,35.06
2019-05-06T12:13:02.912Z,35.06
2019-05-06T12:14:02.692Z,34.43
2019-05-06T12:15:03.554Z,33.03
2019-05-06T12:16:02.633Z,34.55
2019-05-06T12:17:02.501Z,33.04
2019-05-06T12:18:03.782Z,33.35
2019-05-06T12:19:02.930Z,34.67
2019-05-06T12:20:03.100Z,34.56
2019-05-06T12:21:09.043Z,33.96
2019-05-06T12:22:03.461Z,34.26
2019-05-06T12:23:04.433Z,34.16
2019-05-06T12:24:03.061Z,34.69
2019-05-06T12:25:04.580Z,34.80
2019-05-06T12:26:02.632Z,35.00
2019-05-06T12:27:03.232Z,35.51
2019-05-06T12:28:03.091Z,35.19
2019-05-06T12:29:02.481Z,34.69
2019-05-06T12:30:05.363Z,35.50
2019-05-06T12:31:02.381Z,35.39
2019-05-06T12:32:03.665Z,35.60
2019-05-06T12:33:03.150Z,35.19
2019-05-06T12:34:02.774Z,35.19
2019-05-06T12:35:03.517Z,34.99
2019-05-06T12:36:02.604Z,34.08
2019-05-06T12:37:02.679Z,34.69
2019-05-06T12:38:06.734Z,34.58
2019-05-06T12:39:06.623Z,34.36
2019-05-06T12:40:03.434Z,33.45
2019-05-06T12:41:03.364Z,33.26
2019-05-06T12:42:02.259Z,33.37
2019-05-06T12:43:03.885Z,33.38
2019-05-06T12:44:03.136Z,33.26
2019-05-06T12:45:03.687Z,33.99
2019-05-06T12:46:02.813Z,34.78
2019-05-06T12:47:03.312Z,34.69
2019-05-06T12:48:03.044Z,34.67
2019-05-06T12:49:03.195Z,34.85
2019-05-06T12:50:02.899Z,34.65
2019-05-06T12:51:03.094Z,34.43
2019-05-06T12:52:02.813Z,35.14